| DS18B20 | SHTC3 | PZEM-004T | WiFi | ||||||||
|---|---|---|---|---|---|---|---|---|---|---|---|
| ID | Date d/m/Y & Time | data1 สูง | data2 ต่ำ | data3 นอก | temp pcb | hum pcb | Volt | Amp | Watt | rssi | Time |
| 6200 | 24/07/2026 17:22:43 | 32.7  | 32.2  | 30.2  | 33.6  | 64.7  | 231.4  | 0.04  | 4.6  | -77  | 17:22 |
| 6199 | 24/07/2026 17:18:00 | 32.7  | 32.3  | 30.2  | 33.9  | 64.7  | 231.9  | 0.04  | 4.6  | -76  | 17:18 |
| 6198 | 24/07/2026 17:13:17 | 32.8  | 32.3  | 30.2  | 33.7  | 64.6  | 231.6  | 0.04  | 4.6  | -79  | 17:13 |
| 6197 | 24/07/2026 17:08:33 | 32.8  | 32.3  | 30.5  | 33.8  | 64.8  | 233.5  | 0.04  | 4.6  | -80  | 17:08 |
| 6196 | 24/07/2026 17:03:50 | 32.8  | 32.4  | 30.7  | 34.0  | 64.7  | 231.5  | 0.04  | 4.6  | -76  | 17:03 |
| 6195 | 24/07/2026 16:59:07 | 32.9  | 32.4  | 30.9  | 33.8  | 64.5  | 233.6  | 0.04  | 4.6  | -80  | 16:59 |
| 6194 | 24/07/2026 16:54:24 | 32.9  | 32.4  | 30.9  | 34.0  | 64.4  | 232.0  | 0.04  | 4.6  | -78  | 16:54 |
| 6193 | 24/07/2026 16:49:41 | 32.9  | 32.4  | 31.0  | 33.8  | 64.4  | 233.4  | 0.04  | 4.6  | -78  | 16:49 |
| 6192 | 24/07/2026 16:44:57 | 33.0  | 32.4  | 30.9  | 33.9  | 64.1  | 231.9  | 0.04  | 4.6  | -80  | 16:44 |
| 6191 | 24/07/2026 16:40:14 | 33.0  | 32.4  | 30.9  | 34.0  | 64.3  | 233.2  | 0.04  | 4.6  | -76  | 16:40 |
| 6190 | 24/07/2026 16:35:31 | 33.1  | 32.4  | 31.0  | 34.0  | 64.2  | 233.2  | 0.04  | 4.6  | -80  | 16:35 |
| 6189 | 24/07/2026 16:30:48 | 33.1  | 32.4  | 31.3  | 34.1  | 64.3  | 233.1  | 0.04  | 4.5  | -75  | 16:30 |
| 6188 | 24/07/2026 16:26:04 | 33.1  | 32.4  | 31.7  | 34.1  | 64.0  | 232.2  | 0.04  | 4.6  | -81  | 16:26 |
| 6187 | 24/07/2026 16:21:21 | 33.1  | 32.4  | 31.6  | 34.1  | 64.0  | 233.0  | 0.04  | 4.6  | -81  | 16:21 |
| 6186 | 24/07/2026 16:16:38 | 33.1  | 32.4  | 31.7  | 34.1  | 64.1  | 232.8  | 0.04  | 4.6  | -78  | 16:16 |
| 6185 | 24/07/2026 16:11:54 | 33.1  | 32.4  | 31.9  | 34.1  | 64.0  | 233.1  | 0.04  | 4.6  | -79  | 16:11 |
| 6184 | 24/07/2026 16:07:10 | 33.1  | 32.4  | 32.0  | 34.1  | 63.9  | 231.7  | 0.04  | 4.5  | -80  | 16:07 |
| 6183 | 24/07/2026 16:02:27 | 33.1  | 32.4  | 32.0  | 34.1  | 64.0  | 231.9  | 0.04  | 4.6  | -79  | 16:02 |
| 6182 | 24/07/2026 15:57:44 | 33.2  | 32.4  | 31.9  | 34.1  | 63.8  | 232.8  | 0.04  | 4.6  | -81  | 15:57 |
| 6181 | 24/07/2026 15:53:00 | 33.2  | 32.4  | 32.1  | 34.1  | 63.9  | 233.1  | 0.04  | 4.5  | -82  | 15:53 |
| 6180 | 24/07/2026 15:48:18 | 33.2  | 32.4  | 32.2  | 34.1  | 63.8  | 233.1  | 0.04  | 4.6  | -80  | 15:48 |
| 6179 | 24/07/2026 15:43:35 | 33.2  | 32.4  | 32.0  | 34.1  | 63.8  | 232.7  | 0.04  | 4.6  | -80  | 15:43 |
| 6178 | 24/07/2026 15:38:52 | 33.2  | 32.4  | 32.0  | 34.1  | 63.8  | 232.7  | 0.04  | 4.6  | -80  | 15:38 |
| 6177 | 24/07/2026 15:34:09 | 33.2  | 32.4  | 32.0  | 34.1  | 63.7  | 232.2  | 0.04  | 4.6  | -77  | 15:34 |